sensor_id;sensor_type;location;lat;lon;timestamp;pressure;altitude;pressure_sealevel;temperature;humidity
75852;BME280;64500;52.632;20.656;2023-06-19T00:24:50;100353.06;;;11.83;90.21
75852;BME280;64500;52.632;20.656;2023-06-19T00:41:54;100355.45;;;11.74;90.25
75852;BME280;64500;52.632;20.656;2023-06-19T00:45:12;100350.14;;;11.67;90.12
75852;BME280;64500;52.632;20.656;2023-06-19T00:51:37;100353.45;;;11.57;90.06
75852;BME280;64500;52.632;20.656;2023-06-19T01:08:09;100357.89;;;11.57;91.37
75852;BME280;64500;52.632;20.656;2023-06-19T01:14:21;100366.33;;;11.53;91.34
75852;BME280;64500;52.632;20.656;2023-06-19T01:17:09;100366.66;;;11.53;91.43
75852;BME280;64500;52.632;20.656;2023-06-19T01:19:55;100363.27;;;11.55;91.57
75852;BME280;64500;52.632;20.656;2023-06-19T01:22:52;100359.52;;;11.55;91.43
75852;BME280;64500;52.632;20.656;2023-06-19T01:25:27;100360.64;;;11.53;91.44
75852;BME280;64500;52.632;20.656;2023-06-19T01:28:10;100361.08;;;11.51;91.29
75852;BME280;64500;52.632;20.656;2023-06-19T01:30:49;100357.45;;;11.47;91.18
75852;BME280;64500;52.632;20.656;2023-06-19T01:33:22;100359.74;;;11.42;90.90
75852;BME280;64500;52.632;20.656;2023-06-19T01:35:57;100363.25;;;11.36;90.91
75852;BME280;64500;52.632;20.656;2023-06-19T01:38:34;100354.26;;;11.28;90.96
75852;BME280;64500;52.632;20.656;2023-06-19T01:47:31;100359.76;;;11.02;90.53
75852;BME280;64500;52.632;20.656;2023-06-19T01:50:14;100360.73;;;10.92;90.39
75852;BME280;64500;52.632;20.656;2023-06-19T02:13:56;100365.98;;;10.20;90.65
75852;BME280;64500;52.632;20.656;2023-06-19T02:33:48;100373.38;;;9.81;90.93
75852;BME280;64500;52.632;20.656;2023-06-19T02:43:52;100377.91;;;9.75;91.08
75852;BME280;64500;52.632;20.656;2023-06-19T02:57:10;100374.88;;;9.85;92.09
75852;BME280;64500;52.632;20.656;2023-06-19T02:59:34;100372.70;;;9.87;92.12
75852;BME280;64500;52.632;20.656;2023-06-19T03:02:20;100372.98;;;9.90;92.06
75852;BME280;64500;52.632;20.656;2023-06-19T03:04:57;100375.89;;;9.94;91.94
75852;BME280;64500;52.632;20.656;2023-06-19T03:07:27;100375.52;;;9.96;92.22
75852;BME280;64500;52.632;20.656;2023-06-19T03:10:05;100373.20;;;9.96;92.30
75852;BME280;64500;52.632;20.656;2023-06-19T03:12:57;100376.94;;;9.96;91.96
75852;BME280;64500;52.632;20.656;2023-06-19T03:38:56;100381.14;;;11.67;94.74
75852;BME280;64500;52.632;20.656;2023-06-19T03:42:02;100385.80;;;12.08;95.15
75852;BME280;64500;52.632;20.656;2023-06-19T03:59:23;100379.72;;;14.74;95.31
75852;BME280;64500;52.632;20.656;2023-06-19T04:12:03;100384.77;;;17.47;92.07
75852;BME280;64500;52.632;20.656;2023-06-19T04:22:16;100386.17;;;19.00;87.88
75852;BME280;64500;52.632;20.656;2023-06-19T04:25:25;100390.08;;;19.71;88.48
75852;BME280;64500;52.632;20.656;2023-06-19T04:30:33;100383.41;;;20.43;85.80
75852;BME280;64500;52.632;20.656;2023-06-19T04:33:03;100388.05;;;20.79;86.02
75852;BME280;64500;52.632;20.656;2023-06-19T04:38:28;100381.36;;;21.46;84.01
75852;BME280;64500;52.632;20.656;2023-06-19T04:40:59;100375.23;;;21.80;83.69
75852;BME280;64500;52.632;20.656;2023-06-19T04:46:42;100378.70;;;22.66;80.61
75852;BME280;64500;52.632;20.656;2023-06-19T04:56:11;100374.09;;;24.74;78.01
75852;BME280;64500;52.632;20.656;2023-06-19T04:59:01;100372.13;;;25.37;77.96
75852;BME280;64500;52.632;20.656;2023-06-19T05:08:49;100374.48;;;27.80;72.77
75852;BME280;64500;52.632;20.656;2023-06-19T05:12:13;100373.36;;;28.35;71.09
75852;BME280;64500;52.632;20.656;2023-06-19T05:18:54;100380.38;;;29.84;68.01
75852;BME280;64500;52.632;20.656;2023-06-19T05:25:07;100391.41;;;30.77;63.05
75852;BME280;64500;52.632;20.656;2023-06-19T05:55:06;100425.63;;;33.16;53.24
75852;BME280;64500;52.632;20.656;2023-06-19T06:08:20;100443.89;;;32.80;50.29
75852;BME280;64500;52.632;20.656;2023-06-19T06:25:11;100460.31;;;30.91;48.15
75852;BME280;64500;52.632;20.656;2023-06-19T06:28:12;100457.25;;;28.65;47.84
75852;BME280;64500;52.632;20.656;2023-06-19T06:37:28;100451.27;;;26.39;52.28
75852;BME280;64500;52.632;20.656;2023-06-19T06:44:04;100453.75;;;24.81;52.12
75852;BME280;64500;52.632;20.656;2023-06-19T06:46:48;100456.64;;;24.09;52.67
75852;BME280;64500;52.632;20.656;2023-06-19T06:50:40;100460.05;;;23.18;53.71
75852;BME280;64500;52.632;20.656;2023-06-19T06:53:14;100460.05;;;22.89;55.43
75852;BME280;64500;52.632;20.656;2023-06-19T06:56:15;100458.96;;;22.87;56.59
75852;BME280;64500;52.632;20.656;2023-06-19T07:02:40;100463.32;;;22.89;57.74
75852;BME280;64500;52.632;20.656;2023-06-19T07:11:51;100458.29;;;22.91;58.21
75852;BME280;64500;52.632;20.656;2023-06-19T07:14:55;100454.89;;;22.93;58.05
75852;BME280;64500;52.632;20.656;2023-06-19T07:20:49;100454.54;;;22.78;58.03
75852;BME280;64500;52.632;20.656;2023-06-19T07:26:49;100455.98;;;22.81;58.46
75852;BME280;64500;52.632;20.656;2023-06-19T07:29:25;100453.73;;;22.87;58.51
75852;BME280;64500;52.632;20.656;2023-06-19T07:38:52;100455.89;;;22.94;57.75
75852;BME280;64500;52.632;20.656;2023-06-19T07:42:02;100459.92;;;23.03;58.23
75852;BME280;64500;52.632;20.656;2023-06-19T07:44:53;100459.30;;;23.04;58.37
75852;BME280;64500;52.632;20.656;2023-06-19T07:47:26;100456.86;;;23.10;58.64
75852;BME280;64500;52.632;20.656;2023-06-19T07:50:05;100455.66;;;23.24;58.97
75852;BME280;64500;52.632;20.656;2023-06-19T07:52:35;100462.27;;;23.34;58.92
75852;BME280;64500;52.632;20.656;2023-06-19T07:55:23;100464.91;;;23.42;58.66
75852;BME280;64500;52.632;20.656;2023-06-19T07:57:54;100464.66;;;23.50;58.55
75852;BME280;64500;52.632;20.656;2023-06-19T08:00:37;100462.39;;;23.56;58.31
75852;BME280;64500;52.632;20.656;2023-06-19T08:03:08;100457.92;;;23.60;57.73
75852;BME280;64500;52.632;20.656;2023-06-19T08:05:38;100452.48;;;23.56;57.12
75852;BME280;64500;52.632;20.656;2023-06-19T08:08:11;100456.60;;;23.54;57.59
75852;BME280;64500;52.632;20.656;2023-06-19T08:10:39;100462.88;;;23.52;57.01
75852;BME280;64500;52.632;20.656;2023-06-19T08:13:10;100456.55;;;23.45;56.68
75852;BME280;64500;52.632;20.656;2023-06-19T08:15:56;100462.20;;;23.42;57.08
75852;BME280;64500;52.632;20.656;2023-06-19T08:18:23;100457.37;;;23.53;57.51
75852;BME280;64500;52.632;20.656;2023-06-19T08:21:03;100459.69;;;23.63;57.40
75852;BME280;64500;52.632;20.656;2023-06-19T08:23:35;100457.70;;;23.75;56.89
75852;BME280;64500;52.632;20.656;2023-06-19T08:26:06;100454.13;;;23.77;56.34
75852;BME280;64500;52.632;20.656;2023-06-19T08:29:02;100455.04;;;23.84;56.66
75852;BME280;64500;52.632;20.656;2023-06-19T08:38:35;100464.30;;;24.03;55.67
75852;BME280;64500;52.632;20.656;2023-06-19T08:41:33;100457.85;;;24.09;54.82
75852;BME280;64500;52.632;20.656;2023-06-19T08:51:13;100462.81;;;23.88;54.64
75852;BME280;64500;52.632;20.656;2023-06-19T08:54:19;100467.59;;;24.03;54.70
75852;BME280;64500;52.632;20.656;2023-06-19T08:57:42;100461.73;;;24.20;54.77
75852;BME280;64500;52.632;20.656;2023-06-19T09:03:59;100463.88;;;24.38;53.92
75852;BME280;64500;52.632;20.656;2023-06-19T09:06:56;100463.84;;;24.50;53.65
75852;BME280;64500;52.632;20.656;2023-06-19T09:09:55;100464.11;;;24.60;53.54
75852;BME280;64500;52.632;20.656;2023-06-19T09:13:27;100461.95;;;24.78;53.56
75852;BME280;64500;52.632;20.656;2023-06-19T09:16:11;100457.89;;;24.94;53.79
75852;BME280;64500;52.632;20.656;2023-06-19T09:19:08;100460.90;;;25.06;52.10
75852;BME280;64500;52.632;20.656;2023-06-19T09:22:09;100457.85;;;24.99;52.10
75852;BME280;64500;52.632;20.656;2023-06-19T09:25:11;100458.04;;;25.08;52.83
75852;BME280;64500;52.632;20.656;2023-06-19T09:28:51;100456.35;;;25.13;51.86
75852;BME280;64500;52.632;20.656;2023-06-19T09:31:42;100456.33;;;24.76;50.99
75852;BME280;64500;52.632;20.656;2023-06-19T09:35:29;100457.17;;;24.74;51.21
75852;BME280;64500;52.632;20.656;2023-06-19T09:38:05;100460.78;;;24.77;49.20
75852;BME280;64500;52.632;20.656;2023-06-19T09:40:47;100458.36;;;24.39;47.36
75852;BME280;64500;52.632;20.656;2023-06-19T09:43:55;100458.39;;;24.30;49.08
75852;BME280;64500;52.632;20.656;2023-06-19T09:50:03;100452.05;;;25.08;51.19
75852;BME280;64500;52.632;20.656;2023-06-19T09:55:23;100453.73;;;25.67;49.66
75852;BME280;64500;52.632;20.656;2023-06-19T10:04:48;100450.14;;;25.81;47.66
75852;BME280;64500;52.632;20.656;2023-06-19T10:11:19;100442.33;;;26.33;47.56
75852;BME280;64500;52.632;20.656;2023-06-19T10:13:51;100440.79;;;26.69;47.46
75852;BME280;64500;52.632;20.656;2023-06-19T10:17:07;100448.55;;;27.17;48.20
75852;BME280;64500;52.632;20.656;2023-06-19T10:20:24;100450.45;;;27.82;48.39
75852;BME280;64500;52.632;20.656;2023-06-19T10:26:33;100448.92;;;28.07;44.42
75852;BME280;64500;52.632;20.656;2023-06-19T10:29:23;100444.17;;;27.73;44.40
75852;BME280;64500;52.632;20.656;2023-06-19T10:35:10;100441.55;;;27.67;45.03
75852;BME280;64500;52.632;20.656;2023-06-19T10:38:03;100439.83;;;27.40;44.06
75852;BME280;64500;52.632;20.656;2023-06-19T10:44:24;100439.77;;;27.33;44.57
75852;BME280;64500;52.632;20.656;2023-06-19T10:50:03;100427.90;;;28.42;45.71
75852;BME280;64500;52.632;20.656;2023-06-19T10:52:57;100434.98;;;28.82;45.65
75852;BME280;64500;52.632;20.656;2023-06-19T10:55:48;100431.52;;;29.31;44.56
75852;BME280;64500;52.632;20.656;2023-06-19T10:59:22;100431.41;;;29.64;44.08
75852;BME280;64500;52.632;20.656;2023-06-19T11:01:41;100429.92;;;29.59;40.76
75852;BME280;64500;52.632;20.656;2023-06-19T11:04:30;100428.26;;;29.20;40.58
75852;BME280;64500;52.632;20.656;2023-06-19T11:07:05;100431.34;;;28.77;40.20
75852;BME280;64500;52.632;20.656;2023-06-19T11:09:58;100425.75;;;28.45;41.33
75852;BME280;64500;52.632;20.656;2023-06-19T11:12:28;100426.87;;;28.36;41.40
75852;BME280;64500;52.632;20.656;2023-06-19T11:14:58;100424.09;;;28.08;40.86
75852;BME280;64500;52.632;20.656;2023-06-19T11:17:29;100425.83;;;27.85;41.40
75852;BME280;64500;52.632;20.656;2023-06-19T11:19:57;100425.42;;;27.79;41.34
75852;BME280;64500;52.632;20.656;2023-06-19T11:22:39;100421.83;;;27.52;41.07
75852;BME280;64500;52.632;20.656;2023-06-19T11:25:16;100416.09;;;27.61;41.84
75852;BME280;64500;52.632;20.656;2023-06-19T11:27:45;100416.94;;;28.00;43.33
75852;BME280;64500;52.632;20.656;2023-06-19T11:30:30;100412.98;;;28.51;43.79
75852;BME280;64500;52.632;20.656;2023-06-19T11:33:02;100413.95;;;28.94;41.92
75852;BME280;64500;52.632;20.656;2023-06-19T11:35:33;100409.21;;;28.82;40.80
75852;BME280;64500;52.632;20.656;2023-06-19T11:38:06;100408.64;;;28.82;41.01
75852;BME280;64500;52.632;20.656;2023-06-19T11:40:43;100412.38;;;28.65;39.53
75852;BME280;64500;52.632;20.656;2023-06-19T11:43:31;100405.30;;;28.39;40.82
75852;BME280;64500;52.632;20.656;2023-06-19T11:46:32;100403.77;;;28.63;40.65
75852;BME280;64500;52.632;20.656;2023-06-19T11:49:16;100408.68;;;28.67;40.83
75852;BME280;64500;52.632;20.656;2023-06-19T11:52:07;100408.73;;;28.90;41.79
75852;BME280;64500;52.632;20.656;2023-06-19T11:54:54;100406.21;;;29.17;41.90
75852;BME280;64500;52.632;20.656;2023-06-19T11:57:26;100402.72;;;29.48;41.70
75852;BME280;64500;52.632;20.656;2023-06-19T12:00:15;100395.23;;;29.76;41.50
75852;BME280;64500;52.632;20.656;2023-06-19T12:02:52;100390.04;;;30.01;40.92
75852;BME280;64500;52.632;20.656;2023-06-19T12:05:39;100389.25;;;29.88;39.66
75852;BME280;64500;52.632;20.656;2023-06-19T12:08:21;100393.77;;;29.64;39.48
75852;BME280;64500;52.632;20.656;2023-06-19T12:11:06;100389.97;;;29.37;39.08
75852;BME280;64500;52.632;20.656;2023-06-19T12:16:39;100394.45;;;28.89;38.06
75852;BME280;64500;52.632;20.656;2023-06-19T12:19:28;100390.27;;;28.66;38.66
75852;BME280;64500;52.632;20.656;2023-06-19T12:22:23;100391.55;;;28.82;39.61
75852;BME280;64500;52.632;20.656;2023-06-19T12:25:17;100394.92;;;28.77;38.44
75852;BME280;64500;52.632;20.656;2023-06-19T12:28:01;100392.05;;;28.50;38.78
75852;BME280;64500;52.632;20.656;2023-06-19T12:30:35;100387.43;;;28.54;39.45
75852;BME280;64500;52.632;20.656;2023-06-19T12:33:05;100387.89;;;28.64;39.57
75852;BME280;64500;52.632;20.656;2023-06-19T12:35:40;100383.66;;;28.46;39.40
75852;BME280;64500;52.632;20.656;2023-06-19T12:38:16;100386.90;;;28.39;40.03
75852;BME280;64500;52.632;20.656;2023-06-19T12:40:50;100385.66;;;28.54;40.68
75852;BME280;64500;52.632;20.656;2023-06-19T12:43:28;100384.53;;;28.79;41.23
75852;BME280;64500;52.632;20.656;2023-06-19T12:46:17;100386.01;;;29.01;40.74
75852;BME280;64500;52.632;20.656;2023-06-19T12:51:39;100380.45;;;29.16;40.57
75852;BME280;64500;52.632;20.656;2023-06-19T12:57:37;100373.34;;;29.59;40.37
75852;BME280;64500;52.632;20.656;2023-06-19T13:00:15;100369.09;;;30.03;40.56
75852;BME280;64500;52.632;20.656;2023-06-19T13:05:36;100364.61;;;30.71;38.67
75852;BME280;64500;52.632;20.656;2023-06-19T13:08:06;100358.41;;;30.80;38.67
75852;BME280;64500;52.632;20.656;2023-06-19T13:10:55;100357.73;;;30.91;38.30
75852;BME280;64500;52.632;20.656;2023-06-19T13:13:35;100354.85;;;31.08;37.85
75852;BME280;64500;52.632;20.656;2023-06-19T13:16:21;100353.15;;;31.03;36.30
75852;BME280;64500;52.632;20.656;2023-06-19T13:18:57;100362.20;;;30.93;36.88
75852;BME280;64500;52.632;20.656;2023-06-19T13:21:41;100358.48;;;30.94;36.44
75852;BME280;64500;52.632;20.656;2023-06-19T13:24:15;100356.66;;;30.74;34.59
75852;BME280;64500;52.632;20.656;2023-06-19T13:29:28;100354.02;;;30.58;36.40
75852;BME280;64500;52.632;20.656;2023-06-19T13:32:04;100353.71;;;30.76;36.67
75852;BME280;64500;52.632;20.656;2023-06-19T13:37:52;100346.88;;;31.15;36.41
75852;BME280;64500;52.632;20.656;2023-06-19T13:40:25;100344.04;;;31.27;35.75
75852;BME280;64500;52.632;20.656;2023-06-19T13:42:52;100338.97;;;31.19;34.97
75852;BME280;64500;52.632;20.656;2023-06-19T13:45:33;100344.20;;;31.04;35.09
75852;BME280;64500;52.632;20.656;2023-06-19T13:48:13;100343.63;;;31.01;34.52
75852;BME280;64500;52.632;20.656;2023-06-19T13:50:49;100342.10;;;30.82;34.76
75852;BME280;64500;52.632;20.656;2023-06-19T13:53:42;100340.85;;;30.93;35.60
75852;BME280;64500;52.632;20.656;2023-06-19T13:56:26;100340.32;;;31.09;35.45
75852;BME280;64500;52.632;20.656;2023-06-19T13:59:03;100331.89;;;31.20;35.19
75852;BME280;64500;52.632;20.656;2023-06-19T14:01:34;100333.42;;;31.26;35.15
75852;BME280;64500;52.632;20.656;2023-06-19T14:04:14;100331.30;;;31.40;34.91
75852;BME280;64500;52.632;20.656;2023-06-19T14:06:53;100325.02;;;31.35;34.03
75852;BME280;64500;52.632;20.656;2023-06-19T14:09:33;100320.16;;;31.39;34.59
75852;BME280;64500;52.632;20.656;2023-06-19T14:12:40;100320.48;;;31.45;33.69
75852;BME280;64500;52.632;20.656;2023-06-19T14:15:13;100325.55;;;31.16;32.92
75852;BME280;64500;52.632;20.656;2023-06-19T14:18:04;100327.71;;;30.99;33.29
75852;BME280;64500;52.632;20.656;2023-06-19T14:20:36;100326.66;;;31.03;33.36
75852;BME280;64500;52.632;20.656;2023-06-19T14:23:42;100330.58;;;30.87;32.81
75852;BME280;64500;52.632;20.656;2023-06-19T14:26:27;100325.52;;;30.50;33.43
75852;BME280;64500;52.632;20.656;2023-06-19T14:29:14;100323.28;;;30.27;32.49
75852;BME280;64500;52.632;20.656;2023-06-19T14:31:58;100320.27;;;29.61;32.73
75852;BME280;64500;52.632;20.656;2023-06-19T14:34:26;100320.19;;;29.16;33.84
75852;BME280;64500;52.632;20.656;2023-06-19T14:37:14;100326.59;;;28.82;34.33
75852;BME280;64500;52.632;20.656;2023-06-19T14:39:56;100322.02;;;28.61;35.09
75852;BME280;64500;52.632;20.656;2023-06-19T14:42:38;100321.85;;;28.56;36.18
75852;BME280;64500;52.632;20.656;2023-06-19T14:45:06;100322.64;;;28.55;36.31
75852;BME280;64500;52.632;20.656;2023-06-19T14:47:36;100323.38;;;28.57;35.95
75852;BME280;64500;52.632;20.656;2023-06-19T14:50:04;100321.28;;;28.35;36.14
75852;BME280;64500;52.632;20.656;2023-06-19T14:52:43;100318.27;;;28.05;35.80
75852;BME280;64500;52.632;20.656;2023-06-19T14:58:05;100319.30;;;27.67;36.00
75852;BME280;64500;52.632;20.656;2023-06-19T15:00:38;100315.09;;;27.50;36.34
75852;BME280;64500;52.632;20.656;2023-06-19T15:03:11;100313.10;;;27.45;37.24
75852;BME280;64500;52.632;20.656;2023-06-19T15:05:39;100310.65;;;27.45;37.66
75852;BME280;64500;52.632;20.656;2023-06-19T15:08:06;100312.91;;;27.50;37.86
75852;BME280;64500;52.632;20.656;2023-06-19T15:10:37;100316.32;;;27.41;37.26
75852;BME280;64500;52.632;20.656;2023-06-19T15:13:05;100319.19;;;27.15;37.59
75852;BME280;64500;52.632;20.656;2023-06-19T15:15:43;100318.79;;;27.11;37.87
75852;BME280;64500;52.632;20.656;2023-06-19T15:18:37;100313.84;;;27.13;38.38
75852;BME280;64500;52.632;20.656;2023-06-19T15:21:15;100313.27;;;27.13;37.92
75852;BME280;64500;52.632;20.656;2023-06-19T15:23:49;100310.27;;;27.13;38.28
75852;BME280;64500;52.632;20.656;2023-06-19T15:26:26;100311.17;;;27.15;37.96
75852;BME280;64500;52.632;20.656;2023-06-19T15:28:53;100310.94;;;27.04;38.33
75852;BME280;64500;52.632;20.656;2023-06-19T15:31:21;100313.23;;;27.07;38.31
75852;BME280;64500;52.632;20.656;2023-06-19T15:33:49;100312.38;;;27.04;38.63
75852;BME280;64500;52.632;20.656;2023-06-19T15:36:17;100316.78;;;27.06;38.82
75852;BME280;64500;52.632;20.656;2023-06-19T15:38:45;100311.27;;;27.06;38.76
75852;BME280;64500;52.632;20.656;2023-06-19T15:41:26;100313.23;;;27.14;39.35
75852;BME280;64500;52.632;20.656;2023-06-19T15:44:05;100315.52;;;27.19;38.92
75852;BME280;64500;52.632;20.656;2023-06-19T15:47:02;100312.80;;;27.23;38.98
75852;BME280;64500;52.632;20.656;2023-06-19T15:49:33;100315.18;;;27.32;39.25
75852;BME280;64500;52.632;20.656;2023-06-19T15:54:55;100311.10;;;27.41;39.11
75852;BME280;64500;52.632;20.656;2023-06-19T16:00:44;100306.57;;;27.44;39.34
75852;BME280;64500;52.632;20.656;2023-06-19T16:03:14;100303.40;;;27.47;38.87
75852;BME280;64500;52.632;20.656;2023-06-19T16:06:05;100303.76;;;27.45;39.11
75852;BME280;64500;52.632;20.656;2023-06-19T16:09:09;100301.40;;;27.45;38.32
75852;BME280;64500;52.632;20.656;2023-06-19T16:15:13;100304.44;;;27.37;38.56
75852;BME280;64500;52.632;20.656;2023-06-19T16:18:02;100311.83;;;27.26;38.78
75852;BME280;64500;52.632;20.656;2023-06-19T16:20:31;100307.74;;;27.32;39.14
75852;BME280;64500;52.632;20.656;2023-06-19T16:23:24;100302.17;;;27.52;39.33
75852;BME280;64500;52.632;20.656;2023-06-19T16:29:23;100307.41;;;27.98;39.63
75852;BME280;64500;52.632;20.656;2023-06-19T16:32:07;100309.44;;;28.79;39.63
75852;BME280;64500;52.632;20.656;2023-06-19T16:34:39;100307.42;;;29.51;39.37
75852;BME280;64500;52.632;20.656;2023-06-19T16:37:20;100307.09;;;30.27;39.28
75852;BME280;64500;52.632;20.656;2023-06-19T16:39:58;100311.09;;;31.02;38.19
75852;BME280;64500;52.632;20.656;2023-06-19T16:42:28;100309.27;;;31.63;37.80
75852;BME280;64500;52.632;20.656;2023-06-19T16:50:53;100306.95;;;31.69;34.06
75852;BME280;64500;52.632;20.656;2023-06-19T16:53:32;100311.73;;;32.35;34.84
75852;BME280;64500;52.632;20.656;2023-06-19T16:56:17;100315.79;;;33.02;34.91
75852;BME280;64500;52.632;20.656;2023-06-19T16:58:57;100312.57;;;33.60;34.80
75852;BME280;64500;52.632;20.656;2023-06-19T17:01:40;100310.60;;;34.00;33.55
75852;BME280;64500;52.632;20.656;2023-06-19T17:04:18;100313.98;;;33.84;31.91
75852;BME280;64500;52.632;20.656;2023-06-19T17:06:45;100317.13;;;33.23;31.15
75852;BME280;64500;52.632;20.656;2023-06-19T17:09:50;100317.73;;;32.71;31.46
75852;BME280;64500;52.632;20.656;2023-06-19T17:12:28;100318.55;;;32.44;31.33
75852;BME280;64500;52.632;20.656;2023-06-19T17:15:13;100317.53;;;31.87;31.27
75852;BME280;64500;52.632;20.656;2023-06-19T17:18:06;100324.70;;;31.43;31.85
75852;BME280;64500;52.632;20.656;2023-06-19T17:23:57;100321.65;;;31.81;32.92
75852;BME280;64500;52.632;20.656;2023-06-19T17:26:41;100324.13;;;31.98;33.07
75852;BME280;64500;52.632;20.656;2023-06-19T17:29:13;100326.52;;;32.07;33.09
75852;BME280;64500;52.632;20.656;2023-06-19T17:32:08;100328.09;;;32.18;33.39
75852;BME280;64500;52.632;20.656;2023-06-19T17:34:38;100325.63;;;32.27;33.11
75852;BME280;64500;52.632;20.656;2023-06-19T17:37:05;100327.86;;;32.12;33.15
75852;BME280;64500;52.632;20.656;2023-06-19T17:39:53;100330.07;;;32.18;33.80
75852;BME280;64500;52.632;20.656;2023-06-19T17:42:36;100328.20;;;32.48;34.26
75852;BME280;64500;52.632;20.656;2023-06-19T17:45:18;100327.86;;;32.62;34.13
75852;BME280;64500;52.632;20.656;2023-06-19T17:47:51;100332.02;;;32.68;34.51
75852;BME280;64500;52.632;20.656;2023-06-19T17:50:27;100331.20;;;32.74;34.46
75852;BME280;64500;52.632;20.656;2023-06-19T17:53:25;100333.84;;;32.75;34.61
75852;BME280;64500;52.632;20.656;2023-06-19T17:55:54;100330.54;;;32.61;34.47
75852;BME280;64500;52.632;20.656;2023-06-19T17:58:24;100332.11;;;32.43;34.35
75852;BME280;64500;52.632;20.656;2023-06-19T18:01:01;100334.47;;;32.05;33.95
75852;BME280;64500;52.632;20.656;2023-06-19T18:03:49;100340.23;;;31.10;33.78
75852;BME280;64500;52.632;20.656;2023-06-19T18:09:24;100337.39;;;29.36;35.85
75852;BME280;64500;52.632;20.656;2023-06-19T18:11:57;100338.86;;;28.76;37.19
75852;BME280;64500;52.632;20.656;2023-06-19T18:14:38;100340.29;;;28.12;37.96
75852;BME280;64500;52.632;20.656;2023-06-19T18:17:19;100343.95;;;27.37;39.14
75852;BME280;64500;52.632;20.656;2023-06-19T18:19:57;100348.42;;;26.81;40.01
75852;BME280;64500;52.632;20.656;2023-06-19T18:22:55;100347.20;;;26.23;40.97
75852;BME280;64500;52.632;20.656;2023-06-19T18:25:48;100344.94;;;25.69;42.01
75852;BME280;64500;52.632;20.656;2023-06-19T18:28:30;100351.94;;;25.24;42.74
75852;BME280;64500;52.632;20.656;2023-06-19T18:30:57;100352.24;;;24.84;43.65
75852;BME280;64500;52.632;20.656;2023-06-19T18:33:28;100349.86;;;24.45;44.21
75852;BME280;64500;52.632;20.656;2023-06-19T18:35:55;100352.30;;;24.09;45.09
75852;BME280;64500;52.632;20.656;2023-06-19T18:38:23;100353.81;;;23.72;45.64
75852;BME280;64500;52.632;20.656;2023-06-19T18:40:51;100359.95;;;23.37;46.17
75852;BME280;64500;52.632;20.656;2023-06-19T18:43:21;100363.61;;;23.06;46.99
75852;BME280;64500;52.632;20.656;2023-06-19T18:45:48;100374.25;;;22.75;47.61
75852;BME280;64500;52.632;20.656;2023-06-19T18:48:17;100373.63;;;22.40;48.29
75852;BME280;64500;52.632;20.656;2023-06-19T18:50:47;100375.63;;;22.07;49.02
75852;BME280;64500;52.632;20.656;2023-06-19T18:53:15;100376.71;;;21.77;49.89
75852;BME280;64500;52.632;20.656;2023-06-19T18:56:03;100375.48;;;21.40;50.68
75852;BME280;64500;52.632;20.656;2023-06-19T18:58:30;100376.98;;;21.07;51.35
75852;BME280;64500;52.632;20.656;2023-06-19T19:01:07;100376.66;;;20.80;52.46
75852;BME280;64500;52.632;20.656;2023-06-19T19:03:35;100375.09;;;20.52;53.29
75852;BME280;64500;52.632;20.656;2023-06-19T19:06:04;100376.68;;;20.25;53.66
75852;BME280;64500;52.632;20.656;2023-06-19T19:08:31;100380.00;;;20.01;53.99
75852;BME280;64500;52.632;20.656;2023-06-19T19:10:59;100382.02;;;19.78;54.37
75852;BME280;64500;52.632;20.656;2023-06-19T19:13:26;100383.20;;;19.55;54.89
75852;BME280;64500;52.632;20.656;2023-06-19T19:15:56;100390.27;;;19.33;55.84
75852;BME280;64500;52.632;20.656;2023-06-19T19:18:23;100390.63;;;19.12;56.50
75852;BME280;64500;52.632;20.656;2023-06-19T19:20:51;100391.82;;;18.92;56.98
75852;BME280;64500;52.632;20.656;2023-06-19T19:23:21;100394.13;;;18.73;57.56
75852;BME280;64500;52.632;20.656;2023-06-19T19:25:49;100395.69;;;18.55;58.06
75852;BME280;64500;52.632;20.656;2023-06-19T19:28:16;100400.40;;;18.38;58.64
75852;BME280;64500;52.632;20.656;2023-06-19T19:30:47;100401.34;;;18.22;59.13
75852;BME280;64500;52.632;20.656;2023-06-19T19:33:17;100402.91;;;18.06;59.57
75852;BME280;64500;52.632;20.656;2023-06-19T19:35:44;100407.80;;;17.92;60.06
75852;BME280;64500;52.632;20.656;2023-06-19T19:38:33;100408.34;;;17.78;60.71
75852;BME280;64500;52.632;20.656;2023-06-19T19:41:06;100412.69;;;17.64;61.22
75852;BME280;64500;52.632;20.656;2023-06-19T19:43:36;100411.70;;;17.52;61.70
75852;BME280;64500;52.632;20.656;2023-06-19T19:46:03;100411.77;;;17.40;62.10
75852;BME280;64500;52.632;20.656;2023-06-19T19:48:33;100413.56;;;17.29;62.53
75852;BME280;64500;52.632;20.656;2023-06-19T19:51:13;100416.92;;;17.16;63.14
75852;BME280;64500;52.632;20.656;2023-06-19T19:56:38;100416.27;;;16.90;63.81
75852;BME280;64500;52.632;20.656;2023-06-19T20:01:46;100418.80;;;16.63;64.77
75852;BME280;64500;52.632;20.656;2023-06-19T20:04:16;100418.48;;;16.55;65.65
75852;BME280;64500;52.632;20.656;2023-06-19T20:06:43;100416.20;;;16.47;65.85
75852;BME280;64500;52.632;20.656;2023-06-19T20:09:15;100413.73;;;16.35;65.88
75852;BME280;64500;52.632;20.656;2023-06-19T20:11:46;100415.17;;;16.24;66.37
75852;BME280;64500;52.632;20.656;2023-06-19T20:14:19;100416.79;;;16.12;66.62
75852;BME280;64500;52.632;20.656;2023-06-19T20:16:50;100417.20;;;16.03;66.99
75852;BME280;64500;52.632;20.656;2023-06-19T20:19:19;100412.48;;;15.94;67.17
75852;BME280;64500;52.632;20.656;2023-06-19T20:22:03;100412.09;;;15.83;67.59